sensor_id;sensor_type;location;lat;lon;timestamp;pressure;altitude;pressure_sealevel;temperature
79756;BMP280;69239;50.678;12.280;2023-06-14T00:00:03;97492.97;;;14.77
79756;BMP280;69239;50.678;12.280;2023-06-14T00:05:51;97490.94;;;14.74
79756;BMP280;69239;50.678;12.280;2023-06-14T00:08:16;97487.19;;;14.75
79756;BMP280;69239;50.678;12.280;2023-06-14T00:10:44;97489.06;;;14.75
79756;BMP280;69239;50.678;12.280;2023-06-14T00:13:09;97488.22;;;14.71
79756;BMP280;69239;50.678;12.280;2023-06-14T00:15:35;97485.25;;;14.72
79756;BMP280;69239;50.678;12.280;2023-06-14T00:18:01;97477.94;;;14.69
79756;BMP280;69239;50.678;12.280;2023-06-14T00:20:27;97484.78;;;14.70
79756;BMP280;69239;50.678;12.280;2023-06-14T00:22:53;97485.88;;;14.69
79756;BMP280;69239;50.678;12.280;2023-06-14T00:25:21;97481.28;;;14.66
79756;BMP280;69239;50.678;12.280;2023-06-14T00:27:47;97481.28;;;14.66
79756;BMP280;69239;50.678;12.280;2023-06-14T00:30:13;97485.69;;;14.62
79756;BMP280;69239;50.678;12.280;2023-06-14T00:32:38;97484.13;;;14.61
79756;BMP280;69239;50.678;12.280;2023-06-14T00:35:04;97484.84;;;14.58
79756;BMP280;69239;50.678;12.280;2023-06-14T00:37:29;97474.16;;;14.54
79756;BMP280;69239;50.678;12.280;2023-06-14T00:39:55;97474.03;;;14.51
79756;BMP280;69239;50.678;12.280;2023-06-14T00:42:27;97476.34;;;14.52
79756;BMP280;69239;50.678;12.280;2023-06-14T00:44:52;97480.88;;;14.52
79756;BMP280;69239;50.678;12.280;2023-06-14T00:47:18;97476.22;;;14.49
79756;BMP280;69239;50.678;12.280;2023-06-14T00:49:45;97475.47;;;14.48
79756;BMP280;69239;50.678;12.280;2023-06-14T00:52:11;97485.97;;;14.45
79756;BMP280;69239;50.678;12.280;2023-06-14T00:54:37;97478.47;;;14.47
79756;BMP280;69239;50.678;12.280;2023-06-14T00:57:03;97479.13;;;14.44
79756;BMP280;69239;50.678;12.280;2023-06-14T00:59:29;97481.34;;;14.42
79756;BMP280;69239;50.678;12.280;2023-06-14T01:01:54;97485.09;;;14.41
79756;BMP280;69239;50.678;12.280;2023-06-14T01:04:19;97482.78;;;14.39
79756;BMP280;69239;50.678;12.280;2023-06-14T01:09:33;97481.13;;;14.35
79756;BMP280;69239;50.678;12.280;2023-06-14T01:12:15;97486.00;;;14.33
79756;BMP280;69239;50.678;12.280;2023-06-14T01:14:44;97490.88;;;14.31
79756;BMP280;69239;50.678;12.280;2023-06-14T01:17:10;97481.25;;;14.26
79756;BMP280;69239;50.678;12.280;2023-06-14T01:19:45;97481.63;;;14.25
79756;BMP280;69239;50.678;12.280;2023-06-14T01:22:11;97478.53;;;14.23
79756;BMP280;69239;50.678;12.280;2023-06-14T01:24:36;97468.56;;;14.19
79756;BMP280;69239;50.678;12.280;2023-06-14T01:27:05;97483.34;;;14.20
79756;BMP280;69239;50.678;12.280;2023-06-14T01:29:31;97480.63;;;14.17
79756;BMP280;69239;50.678;12.280;2023-06-14T01:32:01;97479.88;;;14.16
79756;BMP280;69239;50.678;12.280;2023-06-14T01:34:27;97485.94;;;14.17
79756;BMP280;69239;50.678;12.280;2023-06-14T01:36:53;97470.28;;;14.12
79756;BMP280;69239;50.678;12.280;2023-06-14T01:39:20;97478.97;;;14.12
79756;BMP280;69239;50.678;12.280;2023-06-14T01:41:46;97478.97;;;14.12
79756;BMP280;69239;50.678;12.280;2023-06-14T01:44:14;97472.81;;;14.08
79756;BMP280;69239;50.678;12.280;2023-06-14T01:46:41;97477.00;;;14.09
79756;BMP280;69239;50.678;12.280;2023-06-14T01:49:07;97477.34;;;14.08
79756;BMP280;69239;50.678;12.280;2023-06-14T01:51:33;97476.44;;;14.04
79756;BMP280;69239;50.678;12.280;2023-06-14T01:53:58;97473.38;;;14.02
79756;BMP280;69239;50.678;12.280;2023-06-14T01:56:25;97481.31;;;14.02
79756;BMP280;69239;50.678;12.280;2023-06-14T01:58:51;97481.66;;;14.00
79756;BMP280;69239;50.678;12.280;2023-06-14T02:01:17;97473.59;;;13.97
79756;BMP280;69239;50.678;12.280;2023-06-14T02:03:44;97470.16;;;13.96
79756;BMP280;69239;50.678;12.280;2023-06-14T02:06:10;97474.34;;;13.97
79756;BMP280;69239;50.678;12.280;2023-06-14T02:08:35;97477.69;;;13.94
79756;BMP280;69239;50.678;12.280;2023-06-14T02:11:01;97481.44;;;13.93
79756;BMP280;69239;50.678;12.280;2023-06-14T02:13:26;97467.53;;;13.84
79756;BMP280;69239;50.678;12.280;2023-06-14T02:15:51;97483.94;;;13.90
79756;BMP280;69239;50.678;12.280;2023-06-14T02:18:20;97479.66;;;13.85
79756;BMP280;69239;50.678;12.280;2023-06-14T02:20:46;97486.81;;;13.84
79756;BMP280;69239;50.678;12.280;2023-06-14T02:23:12;97478.66;;;13.77
79756;BMP280;69239;50.678;12.280;2023-06-14T02:25:37;97487.06;;;13.79
79756;BMP280;69239;50.678;12.280;2023-06-14T02:28:04;97486.91;;;13.76
79756;BMP280;69239;50.678;12.280;2023-06-14T02:30:30;97486.91;;;13.76
79756;BMP280;69239;50.678;12.280;2023-06-14T02:32:56;97483.09;;;13.73
79756;BMP280;69239;50.678;12.280;2023-06-14T02:35:21;97478.78;;;13.69
79756;BMP280;69239;50.678;12.280;2023-06-14T02:37:49;97487.38;;;13.66
79756;BMP280;69239;50.678;12.280;2023-06-14T02:40:16;97481.63;;;13.64
79756;BMP280;69239;50.678;12.280;2023-06-14T02:42:41;97483.41;;;13.60
79756;BMP280;69239;50.678;12.280;2023-06-14T02:45:07;97491.97;;;13.57
79756;BMP280;69239;50.678;12.280;2023-06-14T02:47:33;97490.00;;;13.53
79756;BMP280;69239;50.678;12.280;2023-06-14T02:49:58;97498.28;;;13.52
79756;BMP280;69239;50.678;12.280;2023-06-14T02:52:24;97492.09;;;13.48
79756;BMP280;69239;50.678;12.280;2023-06-14T02:54:50;97493.03;;;13.43
79756;BMP280;69239;50.678;12.280;2023-06-14T02:57:15;97506.25;;;13.43
79756;BMP280;69239;50.678;12.280;2023-06-14T02:59:41;97500.13;;;13.39
79756;BMP280;69239;50.678;12.280;2023-06-14T03:02:06;97507.59;;;13.37
79756;BMP280;69239;50.678;12.280;2023-06-14T03:04:32;97502.53;;;13.32
79756;BMP280;69239;50.678;12.280;2023-06-14T03:07:02;97499.88;;;13.32
79756;BMP280;69239;50.678;12.280;2023-06-14T03:09:34;97506.91;;;13.28
79756;BMP280;69239;50.678;12.280;2023-06-14T03:12:00;97504.16;;;13.25
79756;BMP280;69239;50.678;12.280;2023-06-14T03:14:25;97508.66;;;13.24
79756;BMP280;69239;50.678;12.280;2023-06-14T03:16:50;97505.13;;;13.20
79756;BMP280;69239;50.678;12.280;2023-06-14T03:19:16;97505.81;;;13.17
79756;BMP280;69239;50.678;12.280;2023-06-14T03:21:41;97511.09;;;13.17
79756;BMP280;69239;50.678;12.280;2023-06-14T03:24:09;97519.66;;;13.14
79756;BMP280;69239;50.678;12.280;2023-06-14T03:26:34;97508.19;;;13.10
79756;BMP280;69239;50.678;12.280;2023-06-14T03:29:02;97521.41;;;13.10
79756;BMP280;69239;50.678;12.280;2023-06-14T03:31:29;97520.94;;;13.08
79756;BMP280;69239;50.678;12.280;2023-06-14T03:33:58;97516.31;;;13.05
79756;BMP280;69239;50.678;12.280;2023-06-14T03:36:23;97514.78;;;13.04
79756;BMP280;69239;50.678;12.280;2023-06-14T03:38:48;97524.59;;;13.03
79756;BMP280;69239;50.678;12.280;2023-06-14T03:41:14;97529.72;;;13.00
79756;BMP280;69239;50.678;12.280;2023-06-14T03:43:39;97532.34;;;13.00
79756;BMP280;69239;50.678;12.280;2023-06-14T03:46:04;97530.50;;;13.00
79756;BMP280;69239;50.678;12.280;2023-06-14T03:48:30;97540.28;;;13.00
79756;BMP280;69239;50.678;12.280;2023-06-14T03:50:55;97527.28;;;12.95
79756;BMP280;69239;50.678;12.280;2023-06-14T03:53:21;97542.84;;;12.96
79756;BMP280;69239;50.678;12.280;2023-06-14T03:55:49;97540.03;;;12.93
79756;BMP280;69239;50.678;12.280;2023-06-14T03:58:15;97548.41;;;12.95
79756;BMP280;69239;50.678;12.280;2023-06-14T04:00:41;97545.75;;;12.95
79756;BMP280;69239;50.678;12.280;2023-06-14T04:03:06;97552.16;;;12.94
79756;BMP280;69239;50.678;12.280;2023-06-14T04:05:32;97560.06;;;12.94
79756;BMP280;69239;50.678;12.280;2023-06-14T04:07:57;97554.34;;;12.92
79756;BMP280;69239;50.678;12.280;2023-06-14T04:10:24;97561.50;;;12.91
79756;BMP280;69239;50.678;12.280;2023-06-14T04:12:49;97561.94;;;12.93
79756;BMP280;69239;50.678;12.280;2023-06-14T04:15:15;97561.63;;;12.95
79756;BMP280;69239;50.678;12.280;2023-06-14T04:17:41;97563.03;;;12.92
79756;BMP280;69239;50.678;12.280;2023-06-14T04:20:07;97563.03;;;12.92
79756;BMP280;69239;50.678;12.280;2023-06-14T04:22:34;97566.47;;;12.93
79756;BMP280;69239;50.678;12.280;2023-06-14T04:25:02;97572.50;;;12.93
79756;BMP280;69239;50.678;12.280;2023-06-14T04:27:27;97565.38;;;12.94
79756;BMP280;69239;50.678;12.280;2023-06-14T04:29:54;97572.69;;;12.97
79756;BMP280;69239;50.678;12.280;2023-06-14T04:32:28;97577.03;;;13.13
79756;BMP280;69239;50.678;12.280;2023-06-14T04:34:55;97569.75;;;13.43
79756;BMP280;69239;50.678;12.280;2023-06-14T04:37:21;97568.94;;;13.76
79756;BMP280;69239;50.678;12.280;2023-06-14T04:39:48;97568.31;;;14.03
79756;BMP280;69239;50.678;12.280;2023-06-14T04:42:13;97586.22;;;14.31
79756;BMP280;69239;50.678;12.280;2023-06-14T04:44:46;97586.16;;;14.55
79756;BMP280;69239;50.678;12.280;2023-06-14T04:47:12;97584.63;;;14.78
79756;BMP280;69239;50.678;12.280;2023-06-14T04:49:39;97585.06;;;14.96
79756;BMP280;69239;50.678;12.280;2023-06-14T04:52:06;97587.69;;;15.08
79756;BMP280;69239;50.678;12.280;2023-06-14T04:54:32;97593.28;;;15.19
79756;BMP280;69239;50.678;12.280;2023-06-14T04:56:59;97589.19;;;15.21
79756;BMP280;69239;50.678;12.280;2023-06-14T04:59:24;97585.25;;;15.31
79756;BMP280;69239;50.678;12.280;2023-06-14T05:01:50;97587.09;;;15.43
79756;BMP280;69239;50.678;12.280;2023-06-14T05:04:17;97595.44;;;15.57
79756;BMP280;69239;50.678;12.280;2023-06-14T05:06:43;97593.47;;;15.70
79756;BMP280;69239;50.678;12.280;2023-06-14T05:09:13;97595.97;;;15.78
79756;BMP280;69239;50.678;12.280;2023-06-14T05:11:42;97596.53;;;15.87
79756;BMP280;69239;50.678;12.280;2023-06-14T05:14:10;97589.97;;;15.97
79756;BMP280;69239;50.678;12.280;2023-06-14T05:16:35;97591.72;;;16.09
79756;BMP280;69239;50.678;12.280;2023-06-14T05:19:02;97600.22;;;16.14
79756;BMP280;69239;50.678;12.280;2023-06-14T05:21:29;97594.22;;;16.17
79756;BMP280;69239;50.678;12.280;2023-06-14T05:23:55;97594.00;;;16.07
79756;BMP280;69239;50.678;12.280;2023-06-14T05:26:21;97588.25;;;15.89
79756;BMP280;69239;50.678;12.280;2023-06-14T05:28:48;97596.97;;;15.74
79756;BMP280;69239;50.678;12.280;2023-06-14T05:31:15;97601.28;;;15.63
79756;BMP280;69239;50.678;12.280;2023-06-14T05:33:40;97601.66;;;15.49
79756;BMP280;69239;50.678;12.280;2023-06-14T05:36:05;97597.38;;;15.44
79756;BMP280;69239;50.678;12.280;2023-06-14T05:38:31;97599.50;;;15.54
79756;BMP280;69239;50.678;12.280;2023-06-14T05:40:56;97602.81;;;15.64
79756;BMP280;69239;50.678;12.280;2023-06-14T05:43:21;97607.69;;;15.77
79756;BMP280;69239;50.678;12.280;2023-06-14T05:45:47;97602.44;;;15.81
79756;BMP280;69239;50.678;12.280;2023-06-14T05:48:12;97600.94;;;15.80
79756;BMP280;69239;50.678;12.280;2023-06-14T05:50:37;97605.81;;;15.78
79756;BMP280;69239;50.678;12.280;2023-06-14T05:53:03;97601.09;;;15.71
79756;BMP280;69239;50.678;12.280;2023-06-14T05:55:28;97598.34;;;15.68
79756;BMP280;69239;50.678;12.280;2023-06-14T05:57:53;97607.00;;;15.80
79756;BMP280;69239;50.678;12.280;2023-06-14T06:00:19;97608.72;;;15.88
79756;BMP280;69239;50.678;12.280;2023-06-14T06:02:45;97596.81;;;15.98
79756;BMP280;69239;50.678;12.280;2023-06-14T06:05:14;97611.97;;;16.13
79756;BMP280;69239;50.678;12.280;2023-06-14T06:07:42;97608.78;;;16.23
79756;BMP280;69239;50.678;12.280;2023-06-14T06:10:11;97613.97;;;16.36
79756;BMP280;69239;50.678;12.280;2023-06-14T06:12:37;97618.19;;;16.37
79756;BMP280;69239;50.678;12.280;2023-06-14T06:15:03;97626.09;;;16.33
79756;BMP280;69239;50.678;12.280;2023-06-14T06:17:28;97624.88;;;16.31
79756;BMP280;69239;50.678;12.280;2023-06-14T06:19:54;97632.44;;;16.29
79756;BMP280;69239;50.678;12.280;2023-06-14T06:22:19;97623.34;;;16.30
79756;BMP280;69239;50.678;12.280;2023-06-14T06:24:45;97626.94;;;16.37
79756;BMP280;69239;50.678;12.280;2023-06-14T06:27:11;97627.59;;;16.50
79756;BMP280;69239;50.678;12.280;2023-06-14T06:29:37;97633.81;;;16.57
79756;BMP280;69239;50.678;12.280;2023-06-14T06:32:03;97633.06;;;16.57
79756;BMP280;69239;50.678;12.280;2023-06-14T06:34:29;97637.72;;;16.60
79756;BMP280;69239;50.678;12.280;2023-06-14T06:36:54;97634.75;;;16.65
79756;BMP280;69239;50.678;12.280;2023-06-14T06:39:20;97646.38;;;16.76
79756;BMP280;69239;50.678;12.280;2023-06-14T06:41:46;97643.16;;;16.86
79756;BMP280;69239;50.678;12.280;2023-06-14T06:44:11;97644.94;;;16.98
79756;BMP280;69239;50.678;12.280;2023-06-14T06:46:38;97650.00;;;17.03
79756;BMP280;69239;50.678;12.280;2023-06-14T06:49:06;97651.69;;;17.11
79756;BMP280;69239;50.678;12.280;2023-06-14T06:51:32;97661.06;;;17.24
79756;BMP280;69239;50.678;12.280;2023-06-14T06:53:58;97647.59;;;17.37
79756;BMP280;69239;50.678;12.280;2023-06-14T06:56:23;97656.94;;;17.50
79756;BMP280;69239;50.678;12.280;2023-06-14T06:58:50;97660.97;;;17.63
79756;BMP280;69239;50.678;12.280;2023-06-14T07:01:16;97659.34;;;17.78
79756;BMP280;69239;50.678;12.280;2023-06-14T07:03:43;97653.09;;;17.89
79756;BMP280;69239;50.678;12.280;2023-06-14T07:06:08;97648.75;;;18.04
79756;BMP280;69239;50.678;12.280;2023-06-14T07:08:34;97649.69;;;18.15
79756;BMP280;69239;50.678;12.280;2023-06-14T07:10:59;97653.69;;;18.28
79756;BMP280;69239;50.678;12.280;2023-06-14T07:13:25;97655.41;;;18.44
79756;BMP280;69239;50.678;12.280;2023-06-14T07:15:53;97660.59;;;18.59
79756;BMP280;69239;50.678;12.280;2023-06-14T07:18:20;97660.41;;;18.75
79756;BMP280;69239;50.678;12.280;2023-06-14T07:20:46;97660.19;;;18.87
79756;BMP280;69239;50.678;12.280;2023-06-14T07:23:12;97660.00;;;19.03
79756;BMP280;69239;50.678;12.280;2023-06-14T07:25:37;97664.31;;;19.15
79756;BMP280;69239;50.678;12.280;2023-06-14T07:28:03;97671.69;;;19.25
79756;BMP280;69239;50.678;12.280;2023-06-14T07:30:29;97670.28;;;19.34
79756;BMP280;69239;50.678;12.280;2023-06-14T07:32:55;97673.31;;;19.36
79756;BMP280;69239;50.678;12.280;2023-06-14T07:35:21;97673.78;;;19.42
79756;BMP280;69239;50.678;12.280;2023-06-14T07:37:47;97683.06;;;19.55
79756;BMP280;69239;50.678;12.280;2023-06-14T07:40:13;97675.88;;;19.66
79756;BMP280;69239;50.678;12.280;2023-06-14T07:42:38;97671.44;;;19.77
79756;BMP280;69239;50.678;12.280;2023-06-14T07:45:04;97672.25;;;19.89
79756;BMP280;69239;50.678;12.280;2023-06-14T07:47:30;97673.88;;;19.97
79756;BMP280;69239;50.678;12.280;2023-06-14T07:49:55;97672.41;;;20.06
79756;BMP280;69239;50.678;12.280;2023-06-14T07:52:21;97673.59;;;20.09
79756;BMP280;69239;50.678;12.280;2023-06-14T07:54:46;97664.84;;;20.12
79756;BMP280;69239;50.678;12.280;2023-06-14T07:57:12;97675.97;;;20.25
79756;BMP280;69239;50.678;12.280;2023-06-14T07:59:37;97669.88;;;20.31
79756;BMP280;69239;50.678;12.280;2023-06-14T08:02:04;97679.50;;;20.39
79756;BMP280;69239;50.678;12.280;2023-06-14T08:04:29;97668.88;;;20.46
79756;BMP280;69239;50.678;12.280;2023-06-14T08:06:56;97672.00;;;20.63
79756;BMP280;69239;50.678;12.280;2023-06-14T08:09:21;97675.13;;;20.79
79756;BMP280;69239;50.678;12.280;2023-06-14T08:11:47;97682.03;;;20.91
79756;BMP280;69239;50.678;12.280;2023-06-14T08:14:12;97683.22;;;20.97
79756;BMP280;69239;50.678;12.280;2023-06-14T08:16:38;97683.66;;;21.06
79756;BMP280;69239;50.678;12.280;2023-06-14T08:19:03;97688.25;;;21.23
79756;BMP280;69239;50.678;12.280;2023-06-14T08:21:30;97685.25;;;21.39
79756;BMP280;69239;50.678;12.280;2023-06-14T08:23:59;97677.97;;;21.43
79756;BMP280;69239;50.678;12.280;2023-06-14T08:26:25;97684.47;;;21.35
79756;BMP280;69239;50.678;12.280;2023-06-14T08:28:54;97684.06;;;21.22
79756;BMP280;69239;50.678;12.280;2023-06-14T08:31:20;97686.75;;;21.29
79756;BMP280;69239;50.678;12.280;2023-06-14T08:33:46;97680.63;;;21.29
79756;BMP280;69239;50.678;12.280;2023-06-14T08:36:11;97679.50;;;21.37
79756;BMP280;69239;50.678;12.280;2023-06-14T08:38:38;97672.66;;;21.46
79756;BMP280;69239;50.678;12.280;2023-06-14T08:41:05;97673.03;;;21.45
79756;BMP280;69239;50.678;12.280;2023-06-14T08:43:33;97686.00;;;21.39
79756;BMP280;69239;50.678;12.280;2023-06-14T08:46:03;97689.06;;;21.48
79756;BMP280;69239;50.678;12.280;2023-06-14T08:48:29;97691.03;;;21.58
79756;BMP280;69239;50.678;12.280;2023-06-14T08:51:00;97680.28;;;21.76
79756;BMP280;69239;50.678;12.280;2023-06-14T08:53:31;97675.69;;;21.98
79756;BMP280;69239;50.678;12.280;2023-06-14T08:55:58;97680.25;;;22.12
79756;BMP280;69239;50.678;12.280;2023-06-14T08:58:36;97676.06;;;22.21
79756;BMP280;69239;50.678;12.280;2023-06-14T09:01:03;97682.19;;;22.29
79756;BMP280;69239;50.678;12.280;2023-06-14T09:03:30;97685.16;;;22.45
79756;BMP280;69239;50.678;12.280;2023-06-14T09:05:58;97684.31;;;22.69
79756;BMP280;69239;50.678;12.280;2023-06-14T09:08:27;97675.03;;;22.92
79756;BMP280;69239;50.678;12.280;2023-06-14T09:10:57;97681.47;;;23.05
79756;BMP280;69239;50.678;12.280;2023-06-14T09:13:22;97689.16;;;23.06
79756;BMP280;69239;50.678;12.280;2023-06-14T09:15:48;97679.09;;;23.17
79756;BMP280;69239;50.678;12.280;2023-06-14T09:18:13;97679.44;;;23.23
79756;BMP280;69239;50.678;12.280;2023-06-14T09:20:39;97683.63;;;23.31
79756;BMP280;69239;50.678;12.280;2023-06-14T09:23:05;97689.41;;;23.26
79756;BMP280;69239;50.678;12.280;2023-06-14T09:25:32;97685.53;;;23.31
79756;BMP280;69239;50.678;12.280;2023-06-14T09:27:57;97681.63;;;23.42
79756;BMP280;69239;50.678;12.280;2023-06-14T09:30:23;97692.44;;;23.80
79756;BMP280;69239;50.678;12.280;2023-06-14T09:32:49;97692.41;;;24.24
79756;BMP280;69239;50.678;12.280;2023-06-14T09:35:17;97690.28;;;24.73
79756;BMP280;69239;50.678;12.280;2023-06-14T09:37:43;97688.56;;;25.17
79756;BMP280;69239;50.678;12.280;2023-06-14T09:40:08;97680.59;;;25.33
79756;BMP280;69239;50.678;12.280;2023-06-14T09:42:35;97688.94;;;25.65
79756;BMP280;69239;50.678;12.280;2023-06-14T09:45:02;97685.13;;;26.06
79756;BMP280;69239;50.678;12.280;2023-06-14T09:47:28;97690.38;;;26.52
79756;BMP280;69239;50.678;12.280;2023-06-14T09:49:54;97690.53;;;26.81
79756;BMP280;69239;50.678;12.280;2023-06-14T09:52:21;97690.81;;;27.03
79756;BMP280;69239;50.678;12.280;2023-06-14T09:54:47;97689.31;;;27.34
79756;BMP280;69239;50.678;12.280;2023-06-14T09:57:17;97683.84;;;27.67
79756;BMP280;69239;50.678;12.280;2023-06-14T09:59:45;97687.75;;;27.94
79756;BMP280;69239;50.678;12.280;2023-06-14T10:02:28;97679.00;;;28.03
79756;BMP280;69239;50.678;12.280;2023-06-14T10:05:05;97678.53;;;27.92
79756;BMP280;69239;50.678;12.280;2023-06-14T10:07:47;97674.72;;;27.77
79756;BMP280;69239;50.678;12.280;2023-06-14T10:10:13;97679.81;;;27.87
79756;BMP280;69239;50.678;12.280;2023-06-14T10:12:39;97687.16;;;28.16
79756;BMP280;69239;50.678;12.280;2023-06-14T10:15:07;97679.59;;;28.36
79756;BMP280;69239;50.678;12.280;2023-06-14T10:20:45;97680.38;;;28.36
79756;BMP280;69239;50.678;12.280;2023-06-14T10:23:19;97681.09;;;28.66
79756;BMP280;69239;50.678;12.280;2023-06-14T10:25:49;97677.81;;;28.71
79756;BMP280;69239;50.678;12.280;2023-06-14T10:28:20;97682.13;;;28.56
79756;BMP280;69239;50.678;12.280;2023-06-14T10:31:11;97678.75;;;28.52
79756;BMP280;69239;50.678;12.280;2023-06-14T10:33:49;97675.16;;;28.29
79756;BMP280;69239;50.678;12.280;2023-06-14T10:36:25;97672.44;;;27.88
79756;BMP280;69239;50.678;12.280;2023-06-14T10:39:07;97672.88;;;27.58
79756;BMP280;69239;50.678;12.280;2023-06-14T10:41:38;97675.34;;;27.52
79756;BMP280;69239;50.678;12.280;2023-06-14T10:46:49;97672.44;;;27.88
79756;BMP280;69239;50.678;12.280;2023-06-14T10:49:18;97665.72;;;28.21
79756;BMP280;69239;50.678;12.280;2023-06-14T10:51:45;97673.09;;;28.33
79756;BMP280;69239;50.678;12.280;2023-06-14T10:54:15;97651.66;;;28.39
79756;BMP280;69239;50.678;12.280;2023-06-14T10:56:48;97652.88;;;28.51
79756;BMP280;69239;50.678;12.280;2023-06-14T10:59:14;97652.22;;;28.72
79756;BMP280;69239;50.678;12.280;2023-06-14T11:02:00;97659.25;;;28.69
79756;BMP280;69239;50.678;12.280;2023-06-14T11:04:47;97656.69;;;28.66
79756;BMP280;69239;50.678;12.280;2023-06-14T11:07:53;97652.53;;;28.87
79756;BMP280;69239;50.678;12.280;2023-06-14T11:10:36;97655.19;;;29.24
79756;BMP280;69239;50.678;12.280;2023-06-14T11:13:06;97649.06;;;29.55
79756;BMP280;69239;50.678;12.280;2023-06-14T11:15:33;97654.09;;;29.78
79756;BMP280;69239;50.678;12.280;2023-06-14T11:18:07;97645.19;;;29.99
79756;BMP280;69239;50.678;12.280;2023-06-14T11:20:35;97651.91;;;29.86
79756;BMP280;69239;50.678;12.280;2023-06-14T11:23:01;97648.97;;;29.58
79756;BMP280;69239;50.678;12.280;2023-06-14T11:25:27;97647.88;;;29.56
79756;BMP280;69239;50.678;12.280;2023-06-14T11:27:56;97652.75;;;29.83
79756;BMP280;69239;50.678;12.280;2023-06-14T11:30:22;97658.00;;;29.99
79756;BMP280;69239;50.678;12.280;2023-06-14T11:32:52;97669.56;;;30.21
79756;BMP280;69239;50.678;12.280;2023-06-14T11:35:21;97656.25;;;30.45
79756;BMP280;69239;50.678;12.280;2023-06-14T11:37:49;97652.69;;;30.75
79756;BMP280;69239;50.678;12.280;2023-06-14T11:40:17;97653.63;;;30.81
79756;BMP280;69239;50.678;12.280;2023-06-14T11:42:43;97656.34;;;30.63
79756;BMP280;69239;50.678;12.280;2023-06-14T11:45:11;97654.47;;;30.51
79756;BMP280;69239;50.678;12.280;2023-06-14T11:47:38;97652.38;;;30.64
79756;BMP280;69239;50.678;12.280;2023-06-14T11:50:06;97643.66;;;30.69
79756;BMP280;69239;50.678;12.280;2023-06-14T11:52:32;97648.25;;;30.41
79756;BMP280;69239;50.678;12.280;2023-06-14T11:54:58;97651.66;;;30.24
79756;BMP280;69239;50.678;12.280;2023-06-14T11:57:24;97639.63;;;30.34
79756;BMP280;69239;50.678;12.280;2023-06-14T11:59:50;97642.91;;;30.29
79756;BMP280;69239;50.678;12.280;2023-06-14T12:02:17;97646.84;;;30.28
79756;BMP280;69239;50.678;12.280;2023-06-14T12:04:43;97645.00;;;30.25
79756;BMP280;69239;50.678;12.280;2023-06-14T12:07:10;97640.66;;;30.05
79756;BMP280;69239;50.678;12.280;2023-06-14T12:12:35;97640.34;;;29.51
79756;BMP280;69239;50.678;12.280;2023-06-14T12:15:03;97645.09;;;29.47
79756;BMP280;69239;50.678;12.280;2023-06-14T12:17:32;97639.50;;;29.63
79756;BMP280;69239;50.678;12.280;2023-06-14T12:19:58;97638.91;;;29.90
79756;BMP280;69239;50.678;12.280;2023-06-14T12:22:23;97632.13;;;30.16
79756;BMP280;69239;50.678;12.280;2023-06-14T12:24:48;97642.22;;;30.16
79756;BMP280;69239;50.678;12.280;2023-06-14T12:27:14;97636.78;;;29.85
79756;BMP280;69239;50.678;12.280;2023-06-14T12:29:41;97644.09;;;29.75
79756;BMP280;69239;50.678;12.280;2023-06-14T12:32:10;97643.63;;;29.89
79756;BMP280;69239;50.678;12.280;2023-06-14T12:34:36;97642.81;;;30.10
79756;BMP280;69239;50.678;12.280;2023-06-14T12:37:02;97638.63;;;30.19
79756;BMP280;69239;50.678;12.280;2023-06-14T12:39:29;97632.94;;;30.04
79756;BMP280;69239;50.678;12.280;2023-06-14T12:41:56;97636.28;;;29.77
79756;BMP280;69239;50.678;12.280;2023-06-14T12:44:22;97637.28;;;29.70
79756;BMP280;69239;50.678;12.280;2023-06-14T12:46:48;97630.03;;;29.89
79756;BMP280;69239;50.678;12.280;2023-06-14T12:49:13;97639.50;;;30.16
79756;BMP280;69239;50.678;12.280;2023-06-14T12:51:39;97633.09;;;30.31
79756;BMP280;69239;50.678;12.280;2023-06-14T12:54:05;97637.41;;;30.50
79756;BMP280;69239;50.678;12.280;2023-06-14T12:56:31;97633.72;;;30.35
79756;BMP280;69239;50.678;12.280;2023-06-14T12:58:56;97644.00;;;29.79
79756;BMP280;69239;50.678;12.280;2023-06-14T13:01:21;97639.69;;;29.47
79756;BMP280;69239;50.678;12.280;2023-06-14T13:03:47;97639.50;;;29.28
79756;BMP280;69239;50.678;12.280;2023-06-14T13:06:13;97644.19;;;29.28
79756;BMP280;69239;50.678;12.280;2023-06-14T13:08:39;97642.28;;;29.50
79756;BMP280;69239;50.678;12.280;2023-06-14T13:11:04;97638.66;;;29.75
79756;BMP280;69239;50.678;12.280;2023-06-14T13:13:30;97647.75;;;29.81
79756;BMP280;69239;50.678;12.280;2023-06-14T13:15:55;97647.97;;;29.65
79756;BMP280;69239;50.678;12.280;2023-06-14T13:18:20;97639.25;;;29.48
79756;BMP280;69239;50.678;12.280;2023-06-14T13:20:46;97634.19;;;29.38
79756;BMP280;69239;50.678;12.280;2023-06-14T13:23:12;97637.91;;;29.31
79756;BMP280;69239;50.678;12.280;2023-06-14T13:25:39;97639.50;;;29.28
79756;BMP280;69239;50.678;12.280;2023-06-14T13:28:04;97635.78;;;29.13
79756;BMP280;69239;50.678;12.280;2023-06-14T13:30:30;97638.22;;;28.86
79756;BMP280;69239;50.678;12.280;2023-06-14T13:32:56;97630.00;;;28.90
79756;BMP280;69239;50.678;12.280;2023-06-14T13:35:23;97629.41;;;29.07
79756;BMP280;69239;50.678;12.280;2023-06-14T13:37:48;97630.88;;;29.21
79756;BMP280;69239;50.678;12.280;2023-06-14T13:40:14;97627.72;;;29.22
79756;BMP280;69239;50.678;12.280;2023-06-14T13:42:39;97629.72;;;29.22
79756;BMP280;69239;50.678;12.280;2023-06-14T13:45:06;97626.56;;;29.11
79756;BMP280;69239;50.678;12.280;2023-06-14T13:47:31;97625.91;;;29.07
79756;BMP280;69239;50.678;12.280;2023-06-14T13:49:57;97637.28;;;29.14
79756;BMP280;69239;50.678;12.280;2023-06-14T13:52:23;97637.28;;;29.14
79756;BMP280;69239;50.678;12.280;2023-06-14T13:54:49;97635.72;;;29.04
79756;BMP280;69239;50.678;12.280;2023-06-14T13:57:15;97643.78;;;29.17
79756;BMP280;69239;50.678;12.280;2023-06-14T13:59:41;97634.66;;;29.23
79756;BMP280;69239;50.678;12.280;2023-06-14T14:02:09;97646.72;;;29.22
79756;BMP280;69239;50.678;12.280;2023-06-14T14:04:34;97639.50;;;29.28
79756;BMP280;69239;50.678;12.280;2023-06-14T14:07:01;97636.19;;;29.46
79756;BMP280;69239;50.678;12.280;2023-06-14T14:09:27;97636.78;;;29.63